sensor_id;sensor_type;location;lat;lon;timestamp;P1;durP1;ratioP1;P2;durP2;ratioP2
61200;SDS011;47065;52.898;6.992;2023-06-14T00:01:54;5.72;;;1.88;;
61200;SDS011;47065;52.898;6.992;2023-06-14T00:04:20;3.90;;;1.90;;
61200;SDS011;47065;52.898;6.992;2023-06-14T00:06:46;2.72;;;1.67;;
61200;SDS011;47065;52.898;6.992;2023-06-14T00:09:13;8.40;;;1.77;;
61200;SDS011;47065;52.898;6.992;2023-06-14T00:11:42;4.70;;;1.70;;
61200;SDS011;47065;52.898;6.992;2023-06-14T00:14:08;2.20;;;1.50;;
61200;SDS011;47065;52.898;6.992;2023-06-14T00:16:33;6.65;;;1.85;;
61200;SDS011;47065;52.898;6.992;2023-06-14T00:19:00;4.85;;;2.33;;
61200;SDS011;47065;52.898;6.992;2023-06-14T00:21:28;5.13;;;1.80;;
61200;SDS011;47065;52.898;6.992;2023-06-14T00:23:54;3.65;;;1.92;;
61200;SDS011;47065;52.898;6.992;2023-06-14T00:26:20;2.42;;;1.98;;
61200;SDS011;47065;52.898;6.992;2023-06-14T00:28:46;10.32;;;2.17;;
61200;SDS011;47065;52.898;6.992;2023-06-14T00:31:12;4.18;;;1.80;;
61200;SDS011;47065;52.898;6.992;2023-06-14T00:33:37;4.18;;;2.20;;
61200;SDS011;47065;52.898;6.992;2023-06-14T00:36:03;5.55;;;1.73;;
61200;SDS011;47065;52.898;6.992;2023-06-14T00:38:29;7.50;;;3.15;;
61200;SDS011;47065;52.898;6.992;2023-06-14T00:40:54;4.55;;;1.52;;
61200;SDS011;47065;52.898;6.992;2023-06-14T00:43:20;3.95;;;2.03;;
61200;SDS011;47065;52.898;6.992;2023-06-14T00:45:45;4.00;;;2.05;;
61200;SDS011;47065;52.898;6.992;2023-06-14T00:48:11;4.68;;;2.20;;
61200;SDS011;47065;52.898;6.992;2023-06-14T00:50:38;4.60;;;1.38;;
61200;SDS011;47065;52.898;6.992;2023-06-14T00:53:06;3.63;;;1.70;;
61200;SDS011;47065;52.898;6.992;2023-06-14T00:55:32;4.32;;;2.05;;
61200;SDS011;47065;52.898;6.992;2023-06-14T00:57:58;5.53;;;2.05;;
61200;SDS011;47065;52.898;6.992;2023-06-14T01:00:24;3.33;;;2.05;;
61200;SDS011;47065;52.898;6.992;2023-06-14T01:02:50;5.40;;;1.73;;
61200;SDS011;47065;52.898;6.992;2023-06-14T01:05:15;5.88;;;1.90;;
61200;SDS011;47065;52.898;6.992;2023-06-14T01:13:15;6.28;;;1.77;;
61200;SDS011;47065;52.898;6.992;2023-06-14T01:15:44;3.70;;;1.92;;
61200;SDS011;47065;52.898;6.992;2023-06-14T01:18:11;9.90;;;2.00;;
61200;SDS011;47065;52.898;6.992;2023-06-14T01:20:42;2.45;;;1.50;;
61200;SDS011;47065;52.898;6.992;2023-06-14T01:23:10;7.80;;;2.20;;
61200;SDS011;47065;52.898;6.992;2023-06-14T01:25:39;2.65;;;1.50;;
61200;SDS011;47065;52.898;6.992;2023-06-14T01:28:06;6.25;;;3.20;;
61200;SDS011;47065;52.898;6.992;2023-06-14T01:30:39;6.03;;;2.03;;
61200;SDS011;47065;52.898;6.992;2023-06-14T01:33:13;4.75;;;1.75;;
61200;SDS011;47065;52.898;6.992;2023-06-14T01:35:42;5.45;;;1.88;;
61200;SDS011;47065;52.898;6.992;2023-06-14T01:38:09;5.28;;;1.73;;
61200;SDS011;47065;52.898;6.992;2023-06-14T01:40:35;3.70;;;1.83;;
61200;SDS011;47065;52.898;6.992;2023-06-14T01:43:01;3.00;;;1.70;;
61200;SDS011;47065;52.898;6.992;2023-06-14T01:45:28;2.45;;;1.48;;
61200;SDS011;47065;52.898;6.992;2023-06-14T01:47:55;2.65;;;1.90;;
61200;SDS011;47065;52.898;6.992;2023-06-14T01:50:20;2.38;;;1.80;;
61200;SDS011;47065;52.898;6.992;2023-06-14T01:52:46;4.00;;;1.85;;
61200;SDS011;47065;52.898;6.992;2023-06-14T01:55:12;6.35;;;1.63;;
61200;SDS011;47065;52.898;6.992;2023-06-14T01:57:37;5.13;;;1.90;;
61200;SDS011;47065;52.898;6.992;2023-06-14T02:00:04;4.88;;;1.70;;
61200;SDS011;47065;52.898;6.992;2023-06-14T02:02:33;7.88;;;1.77;;
61200;SDS011;47065;52.898;6.992;2023-06-14T02:04:58;5.97;;;2.00;;
61200;SDS011;47065;52.898;6.992;2023-06-14T02:07:24;5.95;;;1.75;;
61200;SDS011;47065;52.898;6.992;2023-06-14T02:09:50;5.28;;;2.10;;
61200;SDS011;47065;52.898;6.992;2023-06-14T02:12:16;3.85;;;1.50;;
61200;SDS011;47065;52.898;6.992;2023-06-14T02:14:41;6.57;;;1.58;;
61200;SDS011;47065;52.898;6.992;2023-06-14T02:17:07;4.10;;;1.83;;
61200;SDS011;47065;52.898;6.992;2023-06-14T02:19:33;2.67;;;1.98;;
61200;SDS011;47065;52.898;6.992;2023-06-14T02:21:58;6.32;;;1.75;;
61200;SDS011;47065;52.898;6.992;2023-06-14T02:24:24;3.83;;;1.95;;
61200;SDS011;47065;52.898;6.992;2023-06-14T02:26:50;5.53;;;2.15;;
61200;SDS011;47065;52.898;6.992;2023-06-14T02:29:15;2.03;;;1.80;;
61200;SDS011;47065;52.898;6.992;2023-06-14T02:31:41;2.58;;;1.70;;
61200;SDS011;47065;52.898;6.992;2023-06-14T02:34:07;3.03;;;1.80;;
61200;SDS011;47065;52.898;6.992;2023-06-14T02:36:35;2.75;;;1.88;;
61200;SDS011;47065;52.898;6.992;2023-06-14T02:39:07;4.90;;;2.00;;
61200;SDS011;47065;52.898;6.992;2023-06-14T02:41:34;3.28;;;1.90;;
61200;SDS011;47065;52.898;6.992;2023-06-14T02:44:00;3.33;;;2.10;;
61200;SDS011;47065;52.898;6.992;2023-06-14T02:46:25;2.15;;;1.65;;
61200;SDS011;47065;52.898;6.992;2023-06-14T02:48:51;11.73;;;2.08;;
61200;SDS011;47065;52.898;6.992;2023-06-14T02:51:17;5.45;;;2.33;;
61200;SDS011;47065;52.898;6.992;2023-06-14T02:53:42;6.13;;;2.33;;
61200;SDS011;47065;52.898;6.992;2023-06-14T02:56:08;5.47;;;2.28;;
61200;SDS011;47065;52.898;6.992;2023-06-14T02:58:36;5.28;;;2.00;;
61200;SDS011;47065;52.898;6.992;2023-06-14T03:01:01;3.50;;;1.85;;
61200;SDS011;47065;52.898;6.992;2023-06-14T03:03:29;4.40;;;1.98;;
61200;SDS011;47065;52.898;6.992;2023-06-14T03:05:55;3.03;;;2.08;;
61200;SDS011;47065;52.898;6.992;2023-06-14T03:08:21;4.07;;;2.38;;
61200;SDS011;47065;52.898;6.992;2023-06-14T03:10:52;3.38;;;2.33;;
61200;SDS011;47065;52.898;6.992;2023-06-14T03:13:18;6.97;;;2.22;;
61200;SDS011;47065;52.898;6.992;2023-06-14T03:15:47;5.82;;;2.47;;
61200;SDS011;47065;52.898;6.992;2023-06-14T03:18:15;7.05;;;2.63;;
61200;SDS011;47065;52.898;6.992;2023-06-14T03:20:41;4.18;;;2.60;;
61200;SDS011;47065;52.898;6.992;2023-06-14T03:23:07;2.97;;;2.33;;
61200;SDS011;47065;52.898;6.992;2023-06-14T03:25:33;5.63;;;2.10;;
61200;SDS011;47065;52.898;6.992;2023-06-14T03:28:01;3.20;;;2.42;;
61200;SDS011;47065;52.898;6.992;2023-06-14T03:30:27;4.45;;;2.10;;
61200;SDS011;47065;52.898;6.992;2023-06-14T03:32:53;3.05;;;2.05;;
61200;SDS011;47065;52.898;6.992;2023-06-14T03:35:20;4.22;;;2.60;;
61200;SDS011;47065;52.898;6.992;2023-06-14T03:37:46;3.28;;;2.72;;
61200;SDS011;47065;52.898;6.992;2023-06-14T03:40:13;3.03;;;2.10;;
61200;SDS011;47065;52.898;6.992;2023-06-14T03:42:40;6.90;;;2.60;;
61200;SDS011;47065;52.898;6.992;2023-06-14T03:45:05;4.90;;;2.67;;
61200;SDS011;47065;52.898;6.992;2023-06-14T03:47:32;8.85;;;2.70;;
61200;SDS011;47065;52.898;6.992;2023-06-14T03:49:59;4.05;;;1.90;;
61200;SDS011;47065;52.898;6.992;2023-06-14T03:52:26;3.88;;;2.53;;
61200;SDS011;47065;52.898;6.992;2023-06-14T03:54:52;6.90;;;2.45;;
61200;SDS011;47065;52.898;6.992;2023-06-14T03:57:18;6.90;;;2.78;;
61200;SDS011;47065;52.898;6.992;2023-06-14T03:59:45;6.30;;;2.42;;
61200;SDS011;47065;52.898;6.992;2023-06-14T04:02:12;7.13;;;3.20;;
61200;SDS011;47065;52.898;6.992;2023-06-14T04:04:40;6.00;;;2.78;;
61200;SDS011;47065;52.898;6.992;2023-06-14T04:07:09;2.75;;;2.25;;
61200;SDS011;47065;52.898;6.992;2023-06-14T04:09:36;3.80;;;2.47;;
61200;SDS011;47065;52.898;6.992;2023-06-14T04:12:06;6.05;;;2.83;;
61200;SDS011;47065;52.898;6.992;2023-06-14T04:14:33;7.05;;;4.05;;
61200;SDS011;47065;52.898;6.992;2023-06-14T04:16:59;3.80;;;2.55;;
61200;SDS011;47065;52.898;6.992;2023-06-14T04:19:25;7.03;;;2.92;;
61200;SDS011;47065;52.898;6.992;2023-06-14T04:21:51;6.00;;;2.45;;
61200;SDS011;47065;52.898;6.992;2023-06-14T04:24:17;8.10;;;2.78;;
61200;SDS011;47065;52.898;6.992;2023-06-14T04:26:43;5.57;;;3.05;;
61200;SDS011;47065;52.898;6.992;2023-06-14T04:29:12;5.40;;;2.97;;
61200;SDS011;47065;52.898;6.992;2023-06-14T04:31:41;5.97;;;2.60;;
61200;SDS011;47065;52.898;6.992;2023-06-14T04:34:07;3.67;;;2.83;;
61200;SDS011;47065;52.898;6.992;2023-06-14T04:36:33;6.32;;;3.05;;
61200;SDS011;47065;52.898;6.992;2023-06-14T04:39:01;5.30;;;2.70;;
61200;SDS011;47065;52.898;6.992;2023-06-14T04:41:32;5.95;;;3.50;;
61200;SDS011;47065;52.898;6.992;2023-06-14T04:43:58;9.50;;;3.08;;
61200;SDS011;47065;52.898;6.992;2023-06-14T04:46:29;7.82;;;3.88;;
61200;SDS011;47065;52.898;6.992;2023-06-14T04:48:57;3.75;;;3.35;;
61200;SDS011;47065;52.898;6.992;2023-06-14T04:51:27;7.60;;;3.30;;
61200;SDS011;47065;52.898;6.992;2023-06-14T04:53:57;3.58;;;3.28;;
61200;SDS011;47065;52.898;6.992;2023-06-14T04:56:26;4.75;;;2.75;;
61200;SDS011;47065;52.898;6.992;2023-06-14T04:58:52;3.90;;;2.70;;
61200;SDS011;47065;52.898;6.992;2023-06-14T05:01:18;5.22;;;3.00;;
61200;SDS011;47065;52.898;6.992;2023-06-14T05:03:46;5.63;;;2.90;;
61200;SDS011;47065;52.898;6.992;2023-06-14T05:06:14;6.80;;;2.90;;
61200;SDS011;47065;52.898;6.992;2023-06-14T05:08:40;6.45;;;3.10;;
61200;SDS011;47065;52.898;6.992;2023-06-14T05:11:06;7.45;;;3.00;;
61200;SDS011;47065;52.898;6.992;2023-06-14T05:13:32;7.65;;;2.40;;
61200;SDS011;47065;52.898;6.992;2023-06-14T05:15:59;5.25;;;3.22;;
61200;SDS011;47065;52.898;6.992;2023-06-14T05:18:25;7.93;;;3.80;;
61200;SDS011;47065;52.898;6.992;2023-06-14T05:20:51;4.30;;;3.10;;
61200;SDS011;47065;52.898;6.992;2023-06-14T05:23:17;5.40;;;2.67;;
61200;SDS011;47065;52.898;6.992;2023-06-14T05:25:43;6.03;;;3.28;;
61200;SDS011;47065;52.898;6.992;2023-06-14T05:28:09;8.32;;;3.00;;
61200;SDS011;47065;52.898;6.992;2023-06-14T05:30:37;6.78;;;3.38;;
61200;SDS011;47065;52.898;6.992;2023-06-14T05:33:03;5.32;;;2.90;;
61200;SDS011;47065;52.898;6.992;2023-06-14T05:35:29;6.72;;;3.03;;
61200;SDS011;47065;52.898;6.992;2023-06-14T05:37:54;5.53;;;3.30;;
61200;SDS011;47065;52.898;6.992;2023-06-14T05:40:20;7.57;;;3.05;;
61200;SDS011;47065;52.898;6.992;2023-06-14T05:42:46;4.10;;;2.92;;
61200;SDS011;47065;52.898;6.992;2023-06-14T05:45:11;6.47;;;3.10;;
61200;SDS011;47065;52.898;6.992;2023-06-14T05:47:37;11.82;;;3.25;;
61200;SDS011;47065;52.898;6.992;2023-06-14T05:50:03;5.57;;;2.72;;
61200;SDS011;47065;52.898;6.992;2023-06-14T05:52:28;5.82;;;2.85;;
61200;SDS011;47065;52.898;6.992;2023-06-14T05:54:54;5.75;;;3.00;;
61200;SDS011;47065;52.898;6.992;2023-06-14T05:57:20;4.35;;;2.55;;
61200;SDS011;47065;52.898;6.992;2023-06-14T05:59:46;8.98;;;3.13;;
61200;SDS011;47065;52.898;6.992;2023-06-14T06:02:11;4.82;;;3.38;;
61200;SDS011;47065;52.898;6.992;2023-06-14T06:04:37;4.35;;;2.38;;
61200;SDS011;47065;52.898;6.992;2023-06-14T06:07:03;7.70;;;3.05;;
61200;SDS011;47065;52.898;6.992;2023-06-14T06:09:29;4.20;;;2.92;;
61200;SDS011;47065;52.898;6.992;2023-06-14T06:11:55;4.53;;;2.75;;
61200;SDS011;47065;52.898;6.992;2023-06-14T06:14:20;4.80;;;3.13;;
61200;SDS011;47065;52.898;6.992;2023-06-14T06:16:46;5.72;;;2.30;;
61200;SDS011;47065;52.898;6.992;2023-06-14T06:19:12;5.22;;;2.80;;
61200;SDS011;47065;52.898;6.992;2023-06-14T06:21:37;4.30;;;2.50;;
61200;SDS011;47065;52.898;6.992;2023-06-14T06:24:04;3.28;;;2.67;;
61200;SDS011;47065;52.898;6.992;2023-06-14T06:26:30;4.18;;;2.30;;
61200;SDS011;47065;52.898;6.992;2023-06-14T06:28:57;3.15;;;2.53;;
61200;SDS011;47065;52.898;6.992;2023-06-14T06:31:23;4.57;;;2.30;;
61200;SDS011;47065;52.898;6.992;2023-06-14T06:33:49;4.88;;;2.53;;
61200;SDS011;47065;52.898;6.992;2023-06-14T06:36:15;7.43;;;2.78;;
61200;SDS011;47065;52.898;6.992;2023-06-14T06:38:41;2.28;;;2.08;;
61200;SDS011;47065;52.898;6.992;2023-06-14T06:41:07;5.95;;;2.15;;
61200;SDS011;47065;52.898;6.992;2023-06-14T06:43:32;4.70;;;2.50;;
61200;SDS011;47065;52.898;6.992;2023-06-14T06:45:58;3.33;;;2.65;;
61200;SDS011;47065;52.898;6.992;2023-06-14T06:48:23;7.50;;;2.35;;
61200;SDS011;47065;52.898;6.992;2023-06-14T06:50:49;3.95;;;2.33;;
61200;SDS011;47065;52.898;6.992;2023-06-14T06:53:16;2.75;;;1.80;;
61200;SDS011;47065;52.898;6.992;2023-06-14T06:55:43;3.95;;;1.98;;
61200;SDS011;47065;52.898;6.992;2023-06-14T06:58:09;3.65;;;1.85;;
61200;SDS011;47065;52.898;6.992;2023-06-14T07:00:35;8.18;;;2.72;;
61200;SDS011;47065;52.898;6.992;2023-06-14T07:03:00;5.95;;;2.08;;
61200;SDS011;47065;52.898;6.992;2023-06-14T07:05:26;2.10;;;1.90;;
61200;SDS011;47065;52.898;6.992;2023-06-14T07:07:52;2.80;;;1.88;;
61200;SDS011;47065;52.898;6.992;2023-06-14T07:10:17;4.50;;;1.92;;
61200;SDS011;47065;52.898;6.992;2023-06-14T07:12:43;3.20;;;1.88;;
61200;SDS011;47065;52.898;6.992;2023-06-14T07:15:09;1.75;;;1.50;;
61200;SDS011;47065;52.898;6.992;2023-06-14T07:17:36;4.78;;;2.08;;
61200;SDS011;47065;52.898;6.992;2023-06-14T07:20:02;2.85;;;2.08;;
61200;SDS011;47065;52.898;6.992;2023-06-14T07:22:33;3.75;;;2.08;;
61200;SDS011;47065;52.898;6.992;2023-06-14T07:24:58;4.68;;;2.47;;
61200;SDS011;47065;52.898;6.992;2023-06-14T07:27:24;5.50;;;1.88;;
61200;SDS011;47065;52.898;6.992;2023-06-14T07:29:49;3.30;;;1.70;;
61200;SDS011;47065;52.898;6.992;2023-06-14T07:32:15;2.17;;;1.52;;
61200;SDS011;47065;52.898;6.992;2023-06-14T07:34:40;2.00;;;1.83;;
61200;SDS011;47065;52.898;6.992;2023-06-14T07:37:06;4.93;;;1.77;;
61200;SDS011;47065;52.898;6.992;2023-06-14T07:39:32;6.40;;;1.95;;
61200;SDS011;47065;52.898;6.992;2023-06-14T07:41:57;6.60;;;1.50;;
61200;SDS011;47065;52.898;6.992;2023-06-14T07:44:23;3.28;;;1.23;;
61200;SDS011;47065;52.898;6.992;2023-06-14T07:46:48;5.32;;;1.90;;
61200;SDS011;47065;52.898;6.992;2023-06-14T07:49:14;1.77;;;1.58;;
61200;SDS011;47065;52.898;6.992;2023-06-14T07:51:40;3.50;;;1.80;;
61200;SDS011;47065;52.898;6.992;2023-06-14T07:54:06;2.67;;;1.35;;
61200;SDS011;47065;52.898;6.992;2023-06-14T07:56:33;3.15;;;1.98;;
61200;SDS011;47065;52.898;6.992;2023-06-14T07:58:59;2.88;;;1.75;;
61200;SDS011;47065;52.898;6.992;2023-06-14T08:01:24;5.90;;;1.52;;
61200;SDS011;47065;52.898;6.992;2023-06-14T08:03:50;3.63;;;1.60;;
61200;SDS011;47065;52.898;6.992;2023-06-14T08:06:16;3.13;;;1.63;;
61200;SDS011;47065;52.898;6.992;2023-06-14T08:08:41;1.85;;;1.38;;
61200;SDS011;47065;52.898;6.992;2023-06-14T08:11:07;3.78;;;1.60;;
61200;SDS011;47065;52.898;6.992;2023-06-14T08:13:33;1.77;;;1.42;;
61200;SDS011;47065;52.898;6.992;2023-06-14T08:15:58;2.60;;;1.60;;
61200;SDS011;47065;52.898;6.992;2023-06-14T08:18:26;4.43;;;1.45;;
61200;SDS011;47065;52.898;6.992;2023-06-14T08:20:51;1.85;;;1.70;;
61200;SDS011;47065;52.898;6.992;2023-06-14T08:23:19;2.80;;;1.38;;
61200;SDS011;47065;52.898;6.992;2023-06-14T08:25:46;6.47;;;2.50;;
61200;SDS011;47065;52.898;6.992;2023-06-14T08:28:12;4.15;;;1.83;;
61200;SDS011;47065;52.898;6.992;2023-06-14T08:30:37;4.93;;;1.58;;
61200;SDS011;47065;52.898;6.992;2023-06-14T08:33:03;4.03;;;1.60;;
61200;SDS011;47065;52.898;6.992;2023-06-14T08:35:28;3.25;;;1.60;;
61200;SDS011;47065;52.898;6.992;2023-06-14T08:37:54;2.47;;;1.40;;
61200;SDS011;47065;52.898;6.992;2023-06-14T08:40:21;3.30;;;1.70;;
61200;SDS011;47065;52.898;6.992;2023-06-14T08:42:52;1.67;;;1.58;;
61200;SDS011;47065;52.898;6.992;2023-06-14T08:45:19;2.75;;;1.52;;
61200;SDS011;47065;52.898;6.992;2023-06-14T08:47:46;3.38;;;1.30;;
61200;SDS011;47065;52.898;6.992;2023-06-14T08:50:19;2.63;;;1.67;;
61200;SDS011;47065;52.898;6.992;2023-06-14T08:52:55;3.13;;;1.27;;
61200;SDS011;47065;52.898;6.992;2023-06-14T08:55:25;4.50;;;1.30;;
61200;SDS011;47065;52.898;6.992;2023-06-14T08:57:55;2.92;;;1.45;;
61200;SDS011;47065;52.898;6.992;2023-06-14T09:00:25;2.83;;;1.70;;
61200;SDS011;47065;52.898;6.992;2023-06-14T09:02:53;4.28;;;1.35;;
61200;SDS011;47065;52.898;6.992;2023-06-14T09:05:28;2.08;;;1.05;;
61200;SDS011;47065;52.898;6.992;2023-06-14T09:07:54;6.30;;;1.30;;
61200;SDS011;47065;52.898;6.992;2023-06-14T09:10:21;3.55;;;1.17;;
61200;SDS011;47065;52.898;6.992;2023-06-14T09:12:47;2.63;;;1.27;;
61200;SDS011;47065;52.898;6.992;2023-06-14T09:15:13;5.78;;;1.63;;
61200;SDS011;47065;52.898;6.992;2023-06-14T09:17:39;2.60;;;1.10;;
61200;SDS011;47065;52.898;6.992;2023-06-14T09:20:06;6.13;;;1.50;;
61200;SDS011;47065;52.898;6.992;2023-06-14T09:22:38;4.65;;;1.20;;
61200;SDS011;47065;52.898;6.992;2023-06-14T09:25:04;2.97;;;1.15;;
61200;SDS011;47065;52.898;6.992;2023-06-14T09:27:31;1.08;;;0.98;;
61200;SDS011;47065;52.898;6.992;2023-06-14T09:29:57;2.25;;;0.80;;
61200;SDS011;47065;52.898;6.992;2023-06-14T09:32:23;2.00;;;1.08;;
61200;SDS011;47065;52.898;6.992;2023-06-14T09:34:50;2.22;;;1.20;;
61200;SDS011;47065;52.898;6.992;2023-06-14T09:37:28;1.20;;;1.20;;
61200;SDS011;47065;52.898;6.992;2023-06-14T09:39:54;2.97;;;1.20;;
61200;SDS011;47065;52.898;6.992;2023-06-14T09:42:20;3.88;;;0.98;;
61200;SDS011;47065;52.898;6.992;2023-06-14T09:44:49;3.97;;;1.17;;
61200;SDS011;47065;52.898;6.992;2023-06-14T09:47:15;3.00;;;1.10;;
61200;SDS011;47065;52.898;6.992;2023-06-14T09:49:41;2.05;;;1.13;;
61200;SDS011;47065;52.898;6.992;2023-06-14T09:52:15;1.35;;;0.88;;
61200;SDS011;47065;52.898;6.992;2023-06-14T09:54:45;1.13;;;0.88;;
61200;SDS011;47065;52.898;6.992;2023-06-14T09:57:13;1.00;;;0.90;;
61200;SDS011;47065;52.898;6.992;2023-06-14T10:02:23;3.45;;;0.88;;
61200;SDS011;47065;52.898;6.992;2023-06-14T10:04:53;1.38;;;0.98;;
61200;SDS011;47065;52.898;6.992;2023-06-14T10:07:26;3.55;;;1.25;;
61200;SDS011;47065;52.898;6.992;2023-06-14T10:09:55;1.70;;;0.90;;
61200;SDS011;47065;52.898;6.992;2023-06-14T10:12:21;3.08;;;1.10;;
61200;SDS011;47065;52.898;6.992;2023-06-14T10:14:50;1.88;;;0.95;;
61200;SDS011;47065;52.898;6.992;2023-06-14T10:23:19;1.35;;;0.90;;
61200;SDS011;47065;52.898;6.992;2023-06-14T10:25:50;3.08;;;1.08;;
61200;SDS011;47065;52.898;6.992;2023-06-14T10:28:22;1.80;;;1.10;;
61200;SDS011;47065;52.898;6.992;2023-06-14T10:33:56;0.88;;;0.88;;
61200;SDS011;47065;52.898;6.992;2023-06-14T10:38:57;3.25;;;1.10;;
61200;SDS011;47065;52.898;6.992;2023-06-14T10:41:24;3.22;;;1.23;;
61200;SDS011;47065;52.898;6.992;2023-06-14T10:43:52;2.88;;;1.70;;
61200;SDS011;47065;52.898;6.992;2023-06-14T10:46:39;3.70;;;1.20;;
61200;SDS011;47065;52.898;6.992;2023-06-14T10:49:06;2.03;;;1.23;;
61200;SDS011;47065;52.898;6.992;2023-06-14T10:51:38;3.05;;;1.02;;
61200;SDS011;47065;52.898;6.992;2023-06-14T10:54:14;3.13;;;1.17;;
61200;SDS011;47065;52.898;6.992;2023-06-14T10:56:51;2.70;;;0.90;;
61200;SDS011;47065;52.898;6.992;2023-06-14T10:59:18;6.43;;;1.00;;
61200;SDS011;47065;52.898;6.992;2023-06-14T11:04:47;7.03;;;1.50;;
61200;SDS011;47065;52.898;6.992;2023-06-14T11:13:02;1.45;;;1.33;;
61200;SDS011;47065;52.898;6.992;2023-06-14T11:15:32;6.63;;;1.67;;
61200;SDS011;47065;52.898;6.992;2023-06-14T11:18:02;3.88;;;1.67;;
61200;SDS011;47065;52.898;6.992;2023-06-14T11:20:30;1.92;;;1.38;;
61200;SDS011;47065;52.898;6.992;2023-06-14T11:22:57;3.47;;;1.40;;
61200;SDS011;47065;52.898;6.992;2023-06-14T11:25:23;2.85;;;1.10;;
61200;SDS011;47065;52.898;6.992;2023-06-14T11:27:49;3.55;;;1.52;;
61200;SDS011;47065;52.898;6.992;2023-06-14T11:30:16;1.63;;;1.05;;
61200;SDS011;47065;52.898;6.992;2023-06-14T11:32:42;3.80;;;1.30;;
61200;SDS011;47065;52.898;6.992;2023-06-14T11:35:10;3.83;;;1.13;;
61200;SDS011;47065;52.898;6.992;2023-06-14T11:37:36;4.53;;;1.02;;
61200;SDS011;47065;52.898;6.992;2023-06-14T11:40:03;3.38;;;1.25;;
61200;SDS011;47065;52.898;6.992;2023-06-14T11:42:33;8.77;;;2.17;;
61200;SDS011;47065;52.898;6.992;2023-06-14T11:44:59;2.85;;;1.35;;
61200;SDS011;47065;52.898;6.992;2023-06-14T11:47:33;1.20;;;1.10;;
61200;SDS011;47065;52.898;6.992;2023-06-14T11:52:26;5.32;;;1.13;;
61200;SDS011;47065;52.898;6.992;2023-06-14T11:54:53;2.35;;;1.42;;
61200;SDS011;47065;52.898;6.992;2023-06-14T11:57:19;3.00;;;1.02;;
61200;SDS011;47065;52.898;6.992;2023-06-14T11:59:45;2.30;;;1.17;;
61200;SDS011;47065;52.898;6.992;2023-06-14T12:02:17;1.17;;;1.08;;
61200;SDS011;47065;52.898;6.992;2023-06-14T12:04:48;1.08;;;0.88;;
61200;SDS011;47065;52.898;6.992;2023-06-14T12:07:14;2.03;;;1.15;;
61200;SDS011;47065;52.898;6.992;2023-06-14T12:09:42;2.13;;;1.00;;
61200;SDS011;47065;52.898;6.992;2023-06-14T12:12:28;1.33;;;1.23;;
61200;SDS011;47065;52.898;6.992;2023-06-14T12:14:57;1.73;;;1.15;;
61200;SDS011;47065;52.898;6.992;2023-06-14T12:17:22;4.13;;;1.20;;
61200;SDS011;47065;52.898;6.992;2023-06-14T12:19:48;1.58;;;0.93;;
61200;SDS011;47065;52.898;6.992;2023-06-14T12:22:15;2.78;;;1.23;;
61200;SDS011;47065;52.898;6.992;2023-06-14T12:24:45;5.68;;;1.65;;
61200;SDS011;47065;52.898;6.992;2023-06-14T12:27:11;1.30;;;1.02;;
61200;SDS011;47065;52.898;6.992;2023-06-14T12:29:40;2.20;;;1.02;;
61200;SDS011;47065;52.898;6.992;2023-06-14T12:32:08;3.80;;;1.05;;
61200;SDS011;47065;52.898;6.992;2023-06-14T12:34:34;2.40;;;1.10;;
61200;SDS011;47065;52.898;6.992;2023-06-14T12:37:01;2.03;;;1.00;;
61200;SDS011;47065;52.898;6.992;2023-06-14T12:39:29;1.80;;;1.10;;
61200;SDS011;47065;52.898;6.992;2023-06-14T12:41:56;1.23;;;0.80;;
61200;SDS011;47065;52.898;6.992;2023-06-14T12:44:22;3.58;;;1.30;;
61200;SDS011;47065;52.898;6.992;2023-06-14T12:46:48;1.45;;;1.00;;
61200;SDS011;47065;52.898;6.992;2023-06-14T12:49:16;3.83;;;1.30;;
61200;SDS011;47065;52.898;6.992;2023-06-14T12:51:41;1.67;;;1.10;;
61200;SDS011;47065;52.898;6.992;2023-06-14T12:54:07;1.80;;;1.27;;
61200;SDS011;47065;52.898;6.992;2023-06-14T12:56:33;3.80;;;1.05;;
61200;SDS011;47065;52.898;6.992;2023-06-14T12:58:59;4.57;;;1.50;;
61200;SDS011;47065;52.898;6.992;2023-06-14T13:01:25;1.30;;;1.10;;
61200;SDS011;47065;52.898;6.992;2023-06-14T13:03:51;2.33;;;1.13;;
61200;SDS011;47065;52.898;6.992;2023-06-14T13:06:20;1.85;;;1.50;;
61200;SDS011;47065;52.898;6.992;2023-06-14T13:08:47;3.47;;;1.15;;
61200;SDS011;47065;52.898;6.992;2023-06-14T13:11:13;2.25;;;1.20;;
61200;SDS011;47065;52.898;6.992;2023-06-14T13:13:39;2.78;;;1.10;;
61200;SDS011;47065;52.898;6.992;2023-06-14T13:16:05;3.28;;;0.98;;
61200;SDS011;47065;52.898;6.992;2023-06-14T13:18:30;2.47;;;1.13;;
61200;SDS011;47065;52.898;6.992;2023-06-14T13:20:56;1.20;;;1.05;;
61200;SDS011;47065;52.898;6.992;2023-06-14T13:23:22;1.85;;;1.13;;
61200;SDS011;47065;52.898;6.992;2023-06-14T13:25:47;4.15;;;1.02;;
61200;SDS011;47065;52.898;6.992;2023-06-14T13:28:15;2.55;;;1.52;;
61200;SDS011;47065;52.898;6.992;2023-06-14T13:30:40;0.80;;;0.80;;
61200;SDS011;47065;52.898;6.992;2023-06-14T13:33:06;0.90;;;0.90;;
61200;SDS011;47065;52.898;6.992;2023-06-14T13:35:32;2.58;;;1.08;;
61200;SDS011;47065;52.898;6.992;2023-06-14T13:37:57;2.38;;;1.73;;
61200;SDS011;47065;52.898;6.992;2023-06-14T13:40:23;2.15;;;1.10;;
61200;SDS011;47065;52.898;6.992;2023-06-14T13:42:49;4.30;;;1.33;;
61200;SDS011;47065;52.898;6.992;2023-06-14T13:45:14;1.20;;;1.10;;
61200;SDS011;47065;52.898;6.992;2023-06-14T13:47:40;2.55;;;1.02;;
61200;SDS011;47065;52.898;6.992;2023-06-14T13:50:06;2.92;;;1.10;;
61200;SDS011;47065;52.898;6.992;2023-06-14T13:52:32;3.38;;;1.27;;
61200;SDS011;47065;52.898;6.992;2023-06-14T13:54:57;1.15;;;1.05;;
61200;SDS011;47065;52.898;6.992;2023-06-14T13:57:23;2.15;;;1.75;;
61200;SDS011;47065;52.898;6.992;2023-06-14T13:59:49;2.38;;;0.82;;
61200;SDS011;47065;52.898;6.992;2023-06-14T14:02:14;1.67;;;0.82;;
61200;SDS011;47065;52.898;6.992;2023-06-14T14:04:40;1.02;;;1.00;;
61200;SDS011;47065;52.898;6.992;2023-06-14T14:07:06;2.25;;;1.10;;
61200;SDS011;47065;52.898;6.992;2023-06-14T14:09:33;1.48;;;1.20;;
61200;SDS011;47065;52.898;6.992;2023-06-14T14:11:59;1.58;;;1.23;;
61200;SDS011;47065;52.898;6.992;2023-06-14T14:14:26;4.88;;;1.10;;
61200;SDS011;47065;52.898;6.992;2023-06-14T14:16:53;2.38;;;1.35;;
61200;SDS011;47065;52.898;6.992;2023-06-14T14:19:19;3.22;;;2.03;;
61200;SDS011;47065;52.898;6.992;2023-06-14T14:21:48;1.38;;;1.27;;
61200;SDS011;47065;52.898;6.992;2023-06-14T14:24:14;1.00;;;1.00;;
61200;SDS011;47065;52.898;6.992;2023-06-14T14:26:39;4.43;;;1.67;;
61200;SDS011;47065;52.898;6.992;2023-06-14T14:29:05;1.95;;;1.17;;
61200;SDS011;47065;52.898;6.992;2023-06-14T14:31:31;2.88;;;1.17;;
61200;SDS011;47065;52.898;6.992;2023-06-14T14:33:57;2.40;;;1.38;;
61200;SDS011;47065;52.898;6.992;2023-06-14T14:36:23;3.28;;;1.30;;
61200;SDS011;47065;52.898;6.992;2023-06-14T14:38:48;2.17;;;0.98;;
61200;SDS011;47065;52.898;6.992;2023-06-14T14:41:16;1.48;;;1.38;;
61200;SDS011;47065;52.898;6.992;2023-06-14T14:43:42;1.33;;;1.10;;
61200;SDS011;47065;52.898;6.992;2023-06-14T14:46:08;2.35;;;1.23;;
61200;SDS011;47065;52.898;6.992;2023-06-14T14:48:33;2.25;;;1.85;;
61200;SDS011;47065;52.898;6.992;2023-06-14T14:50:59;2.45;;;1.08;;
61200;SDS011;47065;52.898;6.992;2023-06-14T14:53:24;2.22;;;1.45;;
61200;SDS011;47065;52.898;6.992;2023-06-14T14:55:50;1.60;;;1.42;;
61200;SDS011;47065;52.898;6.992;2023-06-14T14:58:16;4.10;;;1.40;;
61200;SDS011;47065;52.898;6.992;2023-06-14T15:00:45;2.17;;;1.60;;
61200;SDS011;47065;52.898;6.992;2023-06-14T15:03:11;4.20;;;1.35;;
61200;SDS011;47065;52.898;6.992;2023-06-14T15:05:37;2.53;;;1.92;;
61200;SDS011;47065;52.898;6.992;2023-06-14T15:08:03;3.30;;;1.50;;
61200;SDS011;47065;52.898;6.992;2023-06-14T15:10:30;1.30;;;1.20;;
61200;SDS011;47065;52.898;6.992;2023-06-14T15:12:56;1.25;;;1.15;;
61200;SDS011;47065;52.898;6.992;2023-06-14T15:15:22;1.48;;;1.27;;
61200;SDS011;47065;52.898;6.992;2023-06-14T15:17:47;1.77;;;1.50;;